createdAt,value
2018-05-31T00:02:06.878Z,100646.83
2018-05-31T00:04:39.405Z,100643.99
2018-05-31T00:07:11.948Z,100642.87
2018-05-31T00:09:44.480Z,100644.16
2018-05-31T00:12:17.031Z,100638.49
2018-05-31T00:14:49.568Z,100639.18
2018-05-31T00:17:22.934Z,100647.68
2018-05-31T00:19:55.448Z,100640.97
2018-05-31T00:22:27.994Z,100645.58
2018-05-31T00:25:00.527Z,100641.38
2018-05-31T00:27:33.068Z,100642.43
2018-05-31T00:30:05.610Z,100642.13
2018-05-31T00:32:38.157Z,100635.38
2018-05-31T00:35:10.721Z,100638.30
2018-05-31T00:37:43.287Z,100633.81
2018-05-31T00:40:15.806Z,100632.54
2018-05-31T00:42:48.354Z,100630.55
2018-05-31T00:45:20.885Z,100624.36
2018-05-31T00:47:53.425Z,100623.80
2018-05-31T00:50:25.944Z,100617.85
2018-05-31T00:52:58.497Z,100624.73
2018-05-31T00:55:43.018Z,100628.38
2018-05-31T00:58:15.523Z,100628.53
2018-05-31T01:00:48.078Z,100622.89
2018-05-31T01:03:22.213Z,100625.42
2018-05-31T01:05:54.761Z,100630.19
2018-05-31T01:08:27.277Z,100631.44
2018-05-31T01:10:59.820Z,100620.66
2018-05-31T01:13:32.329Z,100635.11
2018-05-31T01:16:04.876Z,100635.23
2018-05-31T01:18:37.401Z,100640.50
2018-05-31T01:21:09.947Z,100638.14
2018-05-31T01:23:42.482Z,100639.99
2018-05-31T01:26:15.039Z,100643.58
2018-05-31T01:28:47.564Z,100638.91
2018-05-31T01:31:20.115Z,100640.06
2018-05-31T01:33:53.233Z,100637.20
2018-05-31T01:36:25.785Z,100649.72
2018-05-31T01:38:58.320Z,100648.54
2018-05-31T01:41:30.861Z,100646.06
2018-05-31T01:44:03.385Z,100652.78
2018-05-31T01:46:35.926Z,100647.46
2018-05-31T01:49:08.458Z,100645.52
2018-05-31T01:51:41.004Z,100644.78
2018-05-31T01:54:13.545Z,100645.52
2018-05-31T01:56:46.099Z,100649.03
2018-05-31T01:59:18.616Z,100653.78
2018-05-31T02:01:51.792Z,100661.86
2018-05-31T02:04:24.312Z,100656.16
2018-05-31T02:06:56.840Z,100653.45
2018-05-31T02:09:29.354Z,100649.27
2018-05-31T02:12:01.901Z,100654.03
2018-05-31T02:14:34.442Z,100649.42
2018-05-31T02:17:06.992Z,100643.63
2018-05-31T02:19:39.512Z,100643.31
2018-05-31T02:22:12.067Z,100643.98
2018-05-31T02:24:44.596Z,100646.63
2018-05-31T02:27:17.179Z,100644.45
2018-05-31T02:29:49.718Z,100646.95
2018-05-31T02:32:22.977Z,100647.43
2018-05-31T02:34:55.507Z,100646.77
2018-05-31T02:37:28.069Z,100647.86
2018-05-31T02:40:00.594Z,100653.55
2018-05-31T02:42:33.148Z,100653.79
2018-05-31T02:45:05.682Z,100647.94
2018-05-31T02:47:38.215Z,100637.84
2018-05-31T02:50:10.790Z,100640.58
2018-05-31T02:52:43.346Z,100644.98
2018-05-31T02:55:15.865Z,100642.70
2018-05-31T02:57:48.408Z,100641.01
2018-05-31T03:00:20.958Z,100633.70
2018-05-31T03:02:53.504Z,100632.47
2018-05-31T03:05:26.019Z,100629.93
2018-05-31T03:07:58.560Z,100628.69
2018-05-31T03:10:31.078Z,100633.95
2018-05-31T03:13:04.519Z,100629.31
2018-05-31T03:15:37.045Z,100629.77
2018-05-31T03:18:09.593Z,100629.49
2018-05-31T03:20:42.124Z,100629.49
2018-05-31T03:23:14.666Z,100634.13
2018-05-31T03:25:47.188Z,100637.59
2018-05-31T03:28:19.739Z,100629.16
2018-05-31T03:30:52.996Z,100632.25
2018-05-31T03:33:25.539Z,100636.96
2018-05-31T03:35:58.051Z,100635.06
2018-05-31T03:38:30.595Z,100638.11
2018-05-31T03:41:03.121Z,100644.25
2018-05-31T03:43:35.665Z,100642.73
2018-05-31T03:46:08.176Z,100644.17
2018-05-31T03:48:40.720Z,100650.16
2018-05-31T03:51:13.234Z,100647.95
2018-05-31T03:53:45.772Z,100651.63
2018-05-31T03:56:26.647Z,100646.00
2018-05-31T03:58:59.196Z,100641.66
2018-05-31T04:01:31.768Z,100647.25
2018-05-31T04:04:04.284Z,100646.45
2018-05-31T04:06:36.815Z,100652.61
2018-05-31T04:09:09.349Z,100647.70
2018-05-31T04:11:41.879Z,100647.88
2018-05-31T04:14:14.417Z,100648.55
2018-05-31T04:16:46.950Z,100649.36
2018-05-31T04:19:19.489Z,100644.23
2018-05-31T04:21:52.008Z,100646.90
2018-05-31T04:24:24.543Z,100642.25
2018-05-31T04:26:57.155Z,100643.34
2018-05-31T04:29:29.700Z,100646.59
2018-05-31T04:32:02.224Z,100648.49
2018-05-31T04:34:34.768Z,100652.09
2018-05-31T04:37:07.296Z,100654.41
2018-05-31T04:39:39.824Z,100659.58
2018-05-31T04:42:12.367Z,100653.39
2018-05-31T04:44:44.901Z,100658.19
2018-05-31T04:47:17.520Z,100656.81
2018-05-31T04:49:50.040Z,100657.97
2018-05-31T04:52:23.152Z,100661.25
2018-05-31T04:54:55.676Z,100657.45
2018-05-31T04:57:28.215Z,100664.04
2018-05-31T05:00:00.748Z,100665.42
2018-05-31T05:02:33.309Z,100669.90
2018-05-31T05:05:05.836Z,100668.27
2018-05-31T05:07:38.377Z,100670.00
2018-05-31T05:10:10.920Z,100675.42
2018-05-31T05:12:43.460Z,100678.84
2018-05-31T05:15:15.973Z,100669.56
2018-05-31T05:17:48.512Z,100673.38
2018-05-31T05:20:21.282Z,100678.59
2018-05-31T05:22:53.829Z,100686.49
2018-05-31T05:25:26.363Z,100677.48
2018-05-31T05:27:58.925Z,100676.16
2018-05-31T05:30:31.437Z,100670.16
2018-05-31T05:33:03.975Z,100672.61
2018-05-31T05:35:36.505Z,100672.64
2018-05-31T05:38:09.067Z,100672.77
2018-05-31T05:40:41.593Z,100673.20
2018-05-31T05:43:14.131Z,100674.31
2018-05-31T05:45:46.645Z,100672.80
2018-05-31T05:48:19.200Z,100669.58
2018-05-31T05:50:52.188Z,100672.06
2018-05-31T05:53:24.727Z,100668.94
2018-05-31T05:55:57.258Z,100683.00
2018-05-31T05:58:29.812Z,100681.83
2018-05-31T06:01:02.381Z,100685.88
2018-05-31T06:03:34.930Z,100684.66
2018-05-31T06:06:07.461Z,100685.63
2018-05-31T06:08:40.032Z,100690.70
2018-05-31T06:11:12.580Z,100692.68
2018-05-31T06:13:45.115Z,100695.41
2018-05-31T06:16:17.650Z,100693.30
2018-05-31T06:18:50.206Z,100694.34
2018-05-31T06:21:23.572Z,100687.00
2018-05-31T06:23:56.120Z,100687.86
2018-05-31T06:26:28.701Z,100691.98
2018-05-31T06:29:01.235Z,100696.31
2018-05-31T06:31:33.790Z,100694.56
2018-05-31T06:34:06.328Z,100697.25
2018-05-31T06:36:38.870Z,100699.70
2018-05-31T06:39:11.402Z,100700.41
2018-05-31T06:41:43.919Z,100697.22
2018-05-31T06:44:16.464Z,100693.34
2018-05-31T06:46:48.984Z,100694.11
2018-05-31T06:49:22.713Z,100701.41
2018-05-31T06:51:55.224Z,100701.95
2018-05-31T06:54:27.758Z,100695.13
2018-05-31T06:57:00.296Z,100701.41
2018-05-31T06:59:32.835Z,100699.15
2018-05-31T07:02:05.340Z,100691.69
2018-05-31T07:04:37.865Z,100704.20
2018-05-31T07:07:10.402Z,100697.95
2018-05-31T07:09:42.924Z,100695.41
2018-05-31T07:12:15.429Z,100697.26
2018-05-31T07:14:47.948Z,100701.83
2018-05-31T07:17:21.307Z,100708.09
2018-05-31T07:19:53.844Z,100712.34
2018-05-31T07:22:26.349Z,100697.16
2018-05-31T07:24:58.913Z,100701.91
2018-05-31T07:27:31.429Z,100703.55
2018-05-31T07:30:03.953Z,100701.83
2018-05-31T07:32:36.465Z,100700.08
2018-05-31T07:35:09.001Z,100696.41
2018-05-31T07:37:41.537Z,100700.27
2018-05-31T07:40:14.069Z,100702.54
2018-05-31T07:42:46.576Z,100703.75
2018-05-31T07:45:19.103Z,100699.26
2018-05-31T07:47:51.978Z,100710.55
2018-05-31T07:50:24.505Z,100707.42
2018-05-31T07:52:57.013Z,100704.75
2018-05-31T07:55:29.540Z,100711.37
2018-05-31T07:58:02.102Z,100714.81
2018-05-31T08:00:34.633Z,100718.56
2018-05-31T08:03:07.148Z,100714.87
2018-05-31T08:05:39.709Z,100722.73
2018-05-31T08:08:13.061Z,100726.56
2018-05-31T08:10:45.599Z,100723.39
2018-05-31T08:13:18.144Z,100720.55
2018-05-31T08:15:50.905Z,100727.07
2018-05-31T08:18:23.443Z,100725.20
2018-05-31T08:20:55.951Z,100734.56
2018-05-31T08:23:28.484Z,100733.20
2018-05-31T08:26:00.990Z,100728.78
2018-05-31T08:28:33.522Z,100726.31
2018-05-31T08:31:06.039Z,100727.37
2018-05-31T08:33:38.584Z,100728.92
2018-05-31T08:36:11.127Z,100730.87
2018-05-31T08:38:43.652Z,100728.56
2018-05-31T08:41:16.171Z,100736.02
2018-05-31T08:43:48.711Z,100730.34
2018-05-31T08:46:21.743Z,100729.02
2018-05-31T08:48:54.272Z,100730.46
2018-05-31T08:51:26.789Z,100728.83
2018-05-31T08:53:59.325Z,100730.21
2018-05-31T08:56:31.840Z,100725.27
2018-05-31T08:59:04.365Z,100721.53
2018-05-31T09:01:36.878Z,100723.88
2018-05-31T09:04:09.424Z,100720.42
2018-05-31T09:06:41.944Z,100721.60
2018-05-31T09:09:14.549Z,100720.83
2018-05-31T09:11:47.056Z,100716.62
2018-05-31T09:14:19.575Z,100715.59
2018-05-31T09:16:52.800Z,100711.19
2018-05-31T09:19:25.327Z,100717.27
2018-05-31T09:21:57.845Z,100710.45
2018-05-31T09:24:30.376Z,100712.29
2018-05-31T09:27:02.902Z,100711.83
2018-05-31T09:29:35.439Z,100706.11
2018-05-31T09:32:08.174Z,100701.00
2018-05-31T09:34:40.699Z,100704.98
2018-05-31T09:37:13.202Z,100705.20
2018-05-31T09:39:45.722Z,100699.30
2018-05-31T09:42:18.227Z,100700.16
2018-05-31T09:44:51.381Z,100705.63
2018-05-31T09:47:23.883Z,100702.86
2018-05-31T09:49:56.408Z,100700.63
2018-05-31T09:52:28.912Z,100701.41
2018-05-31T09:55:01.432Z,100701.55
2018-05-31T09:57:33.957Z,100705.06
2018-05-31T10:00:06.483Z,100695.31
2018-05-31T10:02:38.988Z,100698.78
2018-05-31T10:05:11.569Z,100701.53
2018-05-31T10:07:44.078Z,100706.97
2018-05-31T10:10:16.613Z,100702.27
2018-05-31T10:12:49.179Z,100698.51
2018-05-31T10:15:22.024Z,100691.97
2018-05-31T10:17:54.531Z,100695.50
2018-05-31T10:20:27.072Z,100696.39
2018-05-31T10:22:59.585Z,100708.27
2018-05-31T10:25:32.115Z,100693.47
2018-05-31T10:28:04.629Z,100692.65
2018-05-31T10:30:37.149Z,100694.25
2018-05-31T10:33:09.657Z,100692.39
2018-05-31T10:35:42.196Z,100690.92
2018-05-31T10:38:14.693Z,100690.29
2018-05-31T10:40:47.208Z,100684.67
2018-05-31T10:43:19.710Z,100683.42
2018-05-31T10:45:52.941Z,100683.19
2018-05-31T10:48:25.453Z,100685.80
2018-05-31T10:50:57.975Z,100683.39
2018-05-31T10:53:30.480Z,100679.38
2018-05-31T10:56:03.004Z,100678.47
2018-05-31T10:58:35.524Z,100680.95
2018-05-31T11:01:08.048Z,100686.48
2018-05-31T11:03:40.599Z,100681.50
2018-05-31T11:06:13.136Z,100680.77
2018-05-31T11:08:45.645Z,100674.48
2018-05-31T11:11:18.456Z,100668.00
2018-05-31T11:13:50.965Z,100674.89
2018-05-31T11:16:23.507Z,100668.31
2018-05-31T11:18:56.014Z,100673.08
2018-05-31T11:21:28.567Z,100670.87
2018-05-31T11:24:01.113Z,100668.70
2018-05-31T11:26:33.648Z,100666.66
2018-05-31T11:29:06.148Z,100672.34
2018-05-31T11:31:38.668Z,100662.97
2018-05-31T11:34:11.178Z,100662.41
2018-05-31T11:36:43.713Z,100651.30
2018-05-31T11:39:16.212Z,100654.61
2018-05-31T11:41:48.745Z,100650.89
2018-05-31T11:44:21.788Z,100642.80
2018-05-31T11:46:54.309Z,100645.27
2018-05-31T11:49:26.848Z,100643.38
2018-05-31T11:51:59.381Z,100638.59
2018-05-31T11:54:31.896Z,100640.84
2018-05-31T11:57:04.405Z,100635.62
2018-05-31T11:59:36.927Z,100631.94
2018-05-31T12:02:09.427Z,100627.34
2018-05-31T12:04:41.944Z,100631.33
2018-05-31T12:07:14.445Z,100632.16
2018-05-31T12:09:46.980Z,100629.92
2018-05-31T12:12:19.499Z,100626.31
2018-05-31T12:14:52.040Z,100625.80
2018-05-31T12:17:24.630Z,100626.17
2018-05-31T12:19:57.101Z,100631.31
2018-05-31T12:22:29.623Z,100624.53
2018-05-31T12:25:02.157Z,100621.98
2018-05-31T12:27:34.663Z,100614.12
2018-05-31T12:30:07.185Z,100620.02
2018-05-31T12:32:39.692Z,100612.66
2018-05-31T12:35:12.219Z,100613.02
2018-05-31T12:37:44.731Z,100615.06
2018-05-31T12:40:17.279Z,100612.27
2018-05-31T12:42:49.784Z,100607.42
2018-05-31T12:45:23.095Z,100605.96
2018-05-31T12:47:55.628Z,100598.93
2018-05-31T12:50:28.154Z,100589.95
2018-05-31T12:53:00.652Z,100590.61
2018-05-31T12:55:33.188Z,100584.16
2018-05-31T12:58:05.686Z,100588.38
2018-05-31T13:00:38.203Z,100594.54
2018-05-31T13:03:10.725Z,100587.38
2018-05-31T13:05:43.263Z,100589.44
2018-05-31T13:08:15.764Z,100590.99
2018-05-31T13:10:48.291Z,100579.33
2018-05-31T13:13:22.039Z,100590.38
2018-05-31T13:15:56.732Z,100584.16
2018-05-31T13:18:29.300Z,100582.13
2018-05-31T13:21:01.834Z,100580.28
2018-05-31T13:23:34.350Z,100580.30
2018-05-31T13:26:06.873Z,100578.80
2018-05-31T13:28:39.384Z,100579.47
2018-05-31T13:31:11.918Z,100578.57
2018-05-31T13:33:44.435Z,100579.30
2018-05-31T13:36:16.960Z,100574.09
2018-05-31T13:38:49.466Z,100568.22
2018-05-31T13:41:21.983Z,100570.41
2018-05-31T13:43:54.497Z,100561.00
2018-05-31T13:46:27.040Z,100569.00
2018-05-31T13:48:59.722Z,100571.91
2018-05-31T13:51:32.262Z,100563.08
2018-05-31T13:54:04.758Z,100567.51
2018-05-31T13:56:37.282Z,100565.87
2018-05-31T13:59:09.787Z,100565.14
2018-05-31T14:01:42.319Z,100564.23
2018-05-31T14:04:14.821Z,100563.14
2018-05-31T14:06:47.347Z,100556.57
2018-05-31T14:09:19.952Z,100561.39
2018-05-31T14:11:53.061Z,100561.83
2018-05-31T14:14:25.568Z,100553.91
2018-05-31T14:16:58.091Z,100547.32
2018-05-31T14:19:30.605Z,100550.45
2018-05-31T14:22:03.128Z,100541.34
2018-05-31T14:24:35.632Z,100546.97
2018-05-31T14:27:08.147Z,100539.53
2018-05-31T14:29:40.636Z,100540.14
2018-05-31T14:32:13.152Z,100536.54
2018-05-31T14:34:45.658Z,100540.30
2018-05-31T14:37:18.186Z,100535.82
2018-05-31T14:39:50.974Z,100531.31
2018-05-31T14:42:23.519Z,100530.72
2018-05-31T14:44:56.028Z,100530.55
2018-05-31T14:47:28.575Z,100530.89
2018-05-31T14:50:01.081Z,100528.62
2018-05-31T14:52:33.607Z,100522.45
2018-05-31T14:55:06.120Z,100523.98
2018-05-31T14:57:38.642Z,100527.95
2018-05-31T15:00:11.179Z,100521.63
2018-05-31T15:02:43.716Z,100518.83
2018-05-31T15:05:16.221Z,100524.87
2018-05-31T15:07:48.754Z,100528.58
2018-05-31T15:10:21.923Z,100530.23
2018-05-31T15:12:54.479Z,100528.77
2018-05-31T15:15:27.004Z,100526.78
2018-05-31T15:17:59.550Z,100526.02
2018-05-31T15:20:32.071Z,100527.78
2018-05-31T15:23:04.578Z,100524.09
2018-05-31T15:25:37.123Z,100520.69
2018-05-31T15:28:09.637Z,100517.55
2018-05-31T15:30:42.167Z,100514.81
2018-05-31T15:33:14.672Z,100517.76
2018-05-31T15:35:47.223Z,100522.66
2018-05-31T15:38:19.724Z,100521.24
2018-05-31T15:40:52.877Z,100524.03
2018-05-31T15:43:25.410Z,100532.37
2018-05-31T15:45:57.936Z,100526.47
2018-05-31T15:48:30.433Z,100528.31
2018-05-31T15:51:02.956Z,100529.30
2018-05-31T15:53:35.470Z,100527.05
2018-05-31T15:56:08.005Z,100525.63
2018-05-31T15:58:40.598Z,100519.28
2018-05-31T16:01:13.153Z,100526.03
2018-05-31T16:03:45.670Z,100523.03
2018-05-31T16:06:18.194Z,100525.34
2018-05-31T16:08:50.963Z,100518.17
2018-05-31T16:11:23.502Z,100514.14
2018-05-31T16:13:56.008Z,100524.27
2018-05-31T16:16:28.533Z,100525.33
2018-05-31T16:19:01.049Z,100526.78
2018-05-31T16:21:33.580Z,100527.26
2018-05-31T16:24:06.081Z,100517.52
2018-05-31T16:26:38.614Z,100519.53
2018-05-31T16:29:11.139Z,100517.48
2018-05-31T16:31:43.660Z,100517.62
2018-05-31T16:34:16.380Z,100516.64
2018-05-31T16:36:48.938Z,100515.35
2018-05-31T16:39:22.300Z,100509.25
2018-05-31T16:41:54.824Z,100507.03
2018-05-31T16:44:27.338Z,100506.53
2018-05-31T16:46:59.867Z,100507.91
2018-05-31T16:49:32.374Z,100512.98
2018-05-31T16:52:04.904Z,100506.05
2018-05-31T16:54:37.454Z,100507.48
2018-05-31T16:57:09.976Z,100509.20
2018-05-31T16:59:42.479Z,100509.76
2018-05-31T17:02:15.011Z,100514.16
2018-05-31T17:04:47.553Z,100518.51
2018-05-31T17:07:20.071Z,100520.29
2018-05-31T17:09:53.128Z,100518.61
2018-05-31T17:12:25.660Z,100523.76
2018-05-31T17:14:58.569Z,100524.34
2018-05-31T17:17:31.155Z,100525.99
2018-05-31T17:20:03.790Z,100522.46
2018-05-31T17:22:36.563Z,100521.53
2018-05-31T17:25:09.275Z,100523.15
2018-05-31T17:27:41.934Z,100530.72
2018-05-31T17:30:14.664Z,100531.42
2018-05-31T17:32:47.325Z,100535.91
2018-05-31T17:35:19.975Z,100535.52
2018-05-31T17:37:53.701Z,100541.38
2018-05-31T17:40:26.566Z,100544.67
2018-05-31T17:42:59.399Z,100545.38
2018-05-31T17:45:32.022Z,100537.18
2018-05-31T17:48:04.797Z,100530.78
2018-05-31T17:50:37.592Z,100536.97
2018-05-31T17:53:10.284Z,100535.09
2018-05-31T17:55:42.925Z,100537.83
2018-05-31T17:58:15.657Z,100526.67
2018-05-31T18:00:48.738Z,100530.56
2018-05-31T18:03:21.784Z,100524.65
2018-05-31T18:05:54.352Z,100526.15
2018-05-31T18:08:27.454Z,100529.67
2018-05-31T18:11:00.237Z,100531.67
2018-05-31T18:13:33.011Z,100531.61
2018-05-31T18:16:05.869Z,100531.80
2018-05-31T18:18:38.567Z,100533.73
2018-05-31T18:21:11.235Z,100531.87
2018-05-31T18:23:43.891Z,100527.67
2018-05-31T18:26:16.547Z,100530.25
2018-05-31T18:28:49.428Z,100526.72
2018-05-31T18:31:22.142Z,100538.05
2018-05-31T18:33:54.922Z,100543.26
2018-05-31T18:36:27.562Z,100545.05
2018-05-31T18:39:01.309Z,100547.60
2018-05-31T18:41:34.059Z,100550.62
2018-05-31T18:44:06.625Z,100543.92
2018-05-31T18:46:39.261Z,100550.04
2018-05-31T18:49:11.886Z,100549.89
2018-05-31T18:51:44.420Z,100552.52
2018-05-31T18:54:16.926Z,100556.52
2018-05-31T18:56:49.458Z,100549.31
2018-05-31T18:59:21.971Z,100543.92
2018-05-31T19:01:54.496Z,100554.34
2018-05-31T19:04:27.004Z,100556.24
2018-05-31T19:06:59.590Z,100559.86
2018-05-31T19:09:36.912Z,100564.75
2018-05-31T19:12:09.478Z,100560.44
2018-05-31T19:14:42.025Z,100569.28
2018-05-31T19:17:14.556Z,100568.59
2018-05-31T19:19:52.656Z,100572.20
2018-05-31T19:22:25.182Z,100571.28
2018-05-31T19:25:03.236Z,100572.75
2018-05-31T19:27:35.756Z,100572.36
2018-05-31T19:30:13.967Z,100582.86
2018-05-31T19:32:46.505Z,100588.70
2018-05-31T19:35:24.503Z,100594.20
2018-05-31T19:37:57.037Z,100595.02
2018-05-31T19:40:29.545Z,100595.02
2018-05-31T19:43:07.608Z,100595.88
2018-05-31T19:45:40.173Z,100602.22
2018-05-31T19:48:12.700Z,100598.38
2018-05-31T19:50:45.214Z,100605.69
2018-05-31T19:53:23.351Z,100605.56
2018-05-31T19:55:56.069Z,100605.52
2018-05-31T19:58:34.377Z,100608.92
2018-05-31T20:01:12.662Z,100611.05
2018-05-31T20:03:45.224Z,100616.83
2018-05-31T20:06:17.776Z,100619.26
2018-05-31T20:08:50.326Z,100613.72
2018-05-31T20:11:23.910Z,100614.67
2018-05-31T20:13:56.432Z,100624.34
2018-05-31T20:16:28.938Z,100622.45
2018-05-31T20:19:01.534Z,100623.39
2018-05-31T20:21:34.011Z,100620.73
2018-05-31T20:24:06.712Z,100623.23
2018-05-31T20:26:39.229Z,100614.88
2018-05-31T20:29:11.764Z,100612.50
2018-05-31T20:31:44.279Z,100617.13
2018-05-31T20:34:16.826Z,100611.31
2018-05-31T20:36:49.343Z,100615.45
2018-05-31T20:39:21.875Z,100623.86
2018-05-31T20:41:54.388Z,100619.41
2018-05-31T20:44:26.912Z,100619.77
2018-05-31T20:46:59.421Z,100618.28
2018-05-31T20:49:31.956Z,100617.37
2018-05-31T20:52:04.460Z,100619.34
2018-05-31T20:54:36.992Z,100623.23
2018-05-31T20:57:09.504Z,100617.38
2018-05-31T20:59:42.032Z,100611.77
2018-05-31T21:02:14.533Z,100613.42
2018-05-31T21:04:47.062Z,100616.66
2018-05-31T21:07:19.571Z,100611.61
2018-05-31T21:09:52.982Z,100618.95
2018-05-31T21:12:25.489Z,100613.45
2018-05-31T21:14:58.024Z,100614.97
2018-05-31T21:17:30.538Z,100612.72
2018-05-31T21:20:03.128Z,100602.38
2018-05-31T21:22:35.640Z,100608.70
2018-05-31T21:25:08.180Z,100614.20
2018-05-31T21:27:40.711Z,100617.79
2018-05-31T21:30:13.233Z,100620.52
2018-05-31T21:32:45.765Z,100618.22
2018-05-31T21:35:18.272Z,100614.09
2018-05-31T21:37:50.928Z,100613.70
2018-05-31T21:40:23.448Z,100614.59
2018-05-31T21:42:55.969Z,100605.78
2018-05-31T21:45:28.484Z,100607.20
2018-05-31T21:48:01.017Z,100612.56
2018-05-31T21:50:33.528Z,100605.38
2018-05-31T21:53:06.053Z,100605.09
2018-05-31T21:55:38.567Z,100605.31
2018-05-31T21:58:11.100Z,100603.39
2018-05-31T22:00:49.154Z,100605.83
2018-05-31T22:03:21.937Z,100607.47
2018-05-31T22:05:54.444Z,100607.20
2018-05-31T22:08:26.985Z,100604.66
2018-05-31T22:10:59.492Z,100601.27
2018-05-31T22:13:32.032Z,100601.25
2018-05-31T22:16:04.534Z,100607.43
2018-05-31T22:18:37.062Z,100606.41
2018-05-31T22:21:09.569Z,100605.25
2018-05-31T22:23:42.096Z,100613.18
2018-05-31T22:26:14.598Z,100622.50
2018-05-31T22:28:47.124Z,100619.81
2018-05-31T22:31:19.629Z,100619.64
2018-05-31T22:33:52.944Z,100626.33
2018-05-31T22:36:25.494Z,100622.84
2018-05-31T22:38:58.071Z,100623.45
2018-05-31T22:41:30.632Z,100628.10
2018-05-31T22:44:03.161Z,100623.11
2018-05-31T22:46:35.726Z,100622.90
2018-05-31T22:49:08.336Z,100620.45
2018-05-31T22:51:40.903Z,100616.19
2018-05-31T22:54:13.453Z,100621.13
2018-05-31T22:56:46.014Z,100622.16
2018-05-31T22:59:18.547Z,100620.23
2018-05-31T23:01:51.652Z,100622.54
2018-05-31T23:04:24.186Z,100620.97
2018-05-31T23:06:56.688Z,100623.37
2018-05-31T23:09:29.215Z,100618.48
2018-05-31T23:12:01.735Z,100614.91
2018-05-31T23:14:34.270Z,100616.26
2018-05-31T23:17:06.788Z,100609.08
2018-05-31T23:19:39.322Z,100611.23
2018-05-31T23:22:11.844Z,100607.01
2018-05-31T23:24:44.367Z,100606.66
2018-05-31T23:27:16.873Z,100612.77
2018-05-31T23:29:49.409Z,100610.64
2018-05-31T23:32:21.933Z,100613.23
2018-05-31T23:34:54.463Z,100621.83
2018-05-31T23:37:26.971Z,100622.20
2018-05-31T23:39:59.496Z,100626.30
2018-05-31T23:42:31.996Z,100622.12
2018-05-31T23:45:04.532Z,100619.17
2018-05-31T23:47:37.049Z,100615.77
2018-05-31T23:50:09.579Z,100612.75
2018-05-31T23:52:42.090Z,100609.94
2018-05-31T23:55:14.622Z,100603.61
2018-05-31T23:57:47.128Z,100605.83
